Terminal Aerodrome Forecast
Issued by NWS

Home | Current Version | Previous Version | Text Only | Print | Product List | Glossary On
Versions: 1 2 3 4 5 6 7 8 9 10 11 12 13 14 15 16 17 18 19 20
000
FTUS42 KILM 050534
TAFCRE
TAF
KCRE 050534Z 0506/0606 29003KT P6SM SCT080
     FM051200 26010KT P6SM FEW250
     FM051800 29012G20KT P6SM VCSH SCT060
     FM060000 30006KT P6SM SKC=

USA.gov is the U.S. government's official web portal to all federal, state and local government web resources and services.